Portada
METAR-TAF:

METAR-TAF

Aeroports :

Gandja, Azerbaidjan

latitud: 40-44N, longitud: 046-24E, altitud: 330 m

Observació

L'informe es va fer fa 13 minuts, a les 22:30 UTC
Vent 8 kt del Oest/Nord-Oest
Temperatura 24°C
Humitat 65%
Pressió 1006 hPa
Visibilitat 10 km o més
Núvols disperses a una alçada de 6600 ft

METAR: UBBG 152230Z 29008KT 9999 SCT066 24/17 Q1006 R30/CLRD// NOSIG

Hora: 02:43 (22:43 UTC)

Pronòstic

L'informe es va fer fa 5 hores i 43 minuts, a les 17:00 UTC
Pronòstic vàlid del 15 a les 18 UTC al 16 a les 18 UTC
Vent 4 kt amb direcció variable
Visibilitat 10 km o més
Escasses núvols a una alçada de 4000 ft
Núvols disperses a una alçada de 8000 ft
Temporalment
l' 15 a les 18 UTC al 15 a les 21 UTC
Vent 8 kt del Est
Evolucionant progressivament
l' 15 a les 22 UTC al 15 a les 24 UTC
Vent 8 kt del Oest

TAF: UBBG 151700Z 1518/1618 VRB04KT 9999 FEW040 SCT080 TX32/1612Z TN21/1602Z TEMPO 1518/1521 08008KT BECMG 1522/1524 26008KT

Observacions i pronòstics meteorològics de més de 4000 aeroports (METAR i TAF).

Les estacions disponibles són els punts grocs i vermells al mapa.

Posi el ratolí al punt desitjat per veure el nom de l'estació.

Feu clic per veure les observacions i els pronòstics meteorològics.

Per canviar el mapa: feu clic els botons verds amb una creu de color negre per apropar; al botó verd amb un guió per allunyar la imatge; o en les fletxes verdes per a mapes adjacents.


METAR-TAF: